Startpagina
METAR-TAF:

METAR-TAF

Vliegvelden :

Vliegbasis Florennes

Florennes, België

breedte: 50-14N, lengte: 004-39E, hoogte: 279 m

Actueel weer

Dit bericht is 33 minuten geleden gemaakt, om 06:25 UTC
Wind 3 kt uit het noorden
Temperatuur 5°C
Vochtigheid 100%
Druk 1029 hPa
Zicht: 0100 m
mist

METAR: EBFS 200625Z AUTO 01003KT 0100 FG OVC002/// 05/05 Q1029 RED

Tijdstip: 08:58 (06:58 UTC)

Verwachting

Dit bericht is 15 uur en het 17 minuten geleden gemaakt, om 15:41 UTC
Verwachting geldig van 19 om 19 UTC tot 20 om 07 UTC
Wind 5 kt uit variabele richting
Zicht 10 km of meer
Weinig wolken op 2500 ft
Tijdelijke
van 20 om 03 UTC tot 20 om 05 UTC
Zicht: 4000 m
Weinig wolken op 2000 ft
Verspreide wolken op 20000 ft
nevel

TAF: EBFS 191541Z 1919/2007 VRB05KT 9999 FEW025 TEMPO 2003/2005 4000 BR FEW020 SCT200

Waarnemingen en weersverwachtingen van meer dan 4000 vliegvelden (METAR en TAF).

De beschikbare stations zijn de gele en rode punten op de kaart.

Ga met uw muis naar het station om de naam te zien.

Klik dan om waarnemingen en weersverwachtingen te zien.

kaart wijzigen: klik op de groene knoppen met een zwart kruis om in te zoomen, op de groene knop met een streepje om uit te zoomen of op de groene pijlen voor aangrenzende kaarten.


METAR-TAF: